Terminal Aerodrome Forecast
Issued by NWS

Home | Current Version | Previous Version | Text Only | Print | Product List | Glossary On
Versions: 1 2 3 4 5 6 7 8 9 10 11 12 13 14 15 16 17 18 19 20 21 22 23 24 25 26 27 28 29 30 31 32 33 34 35 36 37 38 39 40 41 42 43 44 45 46 47 48 49 50
000
FTUS43 KFGF 162335
TAFTVF
TAF
KTVF 162335Z 1700/1724 VRB04KT P6SM BKN200
     FM171300 14007KT P6SM VCSH BKN080
     FM171900 16009KT P6SM VCSH BKN035
     FM172200 19008KT P6SM TSRA BKN060CB
     FM172300 20007KT P6SM BKN080=

USA.gov is the U.S. government's official web portal to all federal, state and local government web resources and services.